Time;durP1;ratioP1;P1;durP2;ratioP2;P2;SDS_P1;SDS_P2;PMS_P1;PMS_P2;Temp;Humidity;BMP_temperature;BMP_pressure;BME280_temperature;BME280_humidity;BME280_pressure;Samples;Min_cycle;Max_cycle;Signal;HPM_P1;HPM_P2
2023/05/31 00:02:19;;;;;;;4.93;2.40;;;17.20;51.70;;;;;;5132006;27;20192;-65
2023/05/31 00:04:45;;;;;;;4.23;2.57;;;17.20;52.20;;;;;;5131715;27;20544;-65
2023/05/31 00:07:10;;;;;;;4.97;2.60;;;17.10;51.90;;;;;;5131802;27;20273;-65
2023/05/31 00:09:36;;;;;;;8.77;3.10;;;17.10;51.80;;;;;;5131874;27;20181;-66
2023/05/31 00:12:02;;;;;;;3.93;2.57;;;17.10;52.30;;;;;;5113206;27;20229;-65
2023/05/31 00:14:27;;;;;;;9.57;2.90;;;17.10;53.00;;;;;;5131022;27;20180;-65
2023/05/31 00:16:53;;;;;;;5.47;2.43;;;17.10;53.30;;;;;;5131235;27;20243;-65
2023/05/31 00:19:18;;;;;;;7.00;3.20;;;17.10;52.40;;;;;;5131150;27;20189;-65
2023/05/31 00:21:45;;;;;;;5.47;3.20;;;17.10;53.40;;;;;;5131126;27;20272;-66
2023/05/31 00:24:15;;;;;;;4.43;2.23;;;17.10;52.90;;;;;;5112382;27;20200;-66
2023/05/31 00:26:41;;;;;;;9.03;2.87;;;17.10;53.30;;;;;;5130730;27;20469;-66
2023/05/31 00:29:06;;;;;;;3.87;2.67;;;17.10;54.10;;;;;;5130885;27;20418;-66
2023/05/31 00:31:32;;;;;;;6.33;3.43;;;17.00;52.70;;;;;;5131232;27;20232;-66
2023/05/31 00:33:57;;;;;;;10.10;4.23;;;17.00;53.60;;;;;;5130798;27;20692;-65
2023/05/31 00:36:23;;;;;;;18.57;3.93;;;17.00;53.30;;;;;;5130649;27;20187;-65
2023/05/31 00:38:49;;;;;;;7.33;3.90;;;17.00;53.60;;;;;;5130541;27;20236;-66
2023/05/31 00:41:15;;;;;;;11.53;3.83;;;17.00;53.20;;;;;;5130379;27;20928;-65
2023/05/31 00:43:41;;;;;;;9.97;4.67;;;17.00;54.10;;;;;;5130395;27;20226;-65
2023/05/31 00:46:11;;;;;;;7.47;3.87;;;16.90;53.60;;;;;;5130348;27;20630;-65
2023/05/31 00:48:38;;;;;;;5.90;4.27;;;16.90;53.70;;;;;;5130328;27;20711;-67
2023/05/31 00:51:05;;;;;;;8.90;5.03;;;16.90;53.30;;;;;;5130521;27;20414;-65
2023/05/31 00:53:31;;;;;;;7.43;3.70;;;16.90;54.10;;;;;;5130411;27;20414;-65
2023/05/31 00:55:59;;;;;;;7.60;3.13;;;16.80;54.60;;;;;;5130344;27;20482;-65
2023/05/31 00:58:26;;;;;;;4.23;2.70;;;16.80;54.30;;;;;;5130034;27;20712;-65
2023/05/31 01:00:52;;;;;;;3.43;2.10;;;16.80;53.90;;;;;;5130165;27;20424;-65
2023/05/31 01:03:19;;;;;;;3.93;2.73;;;16.70;54.50;;;;;;5130291;27;20455;-66
2023/05/31 01:05:45;;;;;;;4.30;2.83;;;16.70;53.80;;;;;;5129927;27;20568;-65
2023/05/31 01:08:11;;;;;;;6.07;2.90;;;16.80;53.70;;;;;;5130066;27;20918;-65
2023/05/31 01:10:37;;;;;;;9.20;3.13;;;16.70;54.30;;;;;;5130039;27;20458;-66
2023/05/31 01:13:34;;;;;;;3.40;2.20;;;16.70;54.10;;;;;;5129837;27;20262;-66
2023/05/31 01:16:25;;;;;;;13.63;2.50;;;16.70;53.50;;;;;;5129892;27;20184;-66
2023/05/31 01:19:00;;;;;;;10.30;2.93;;;16.60;53.90;;;;;;5129923;27;20441;-65
2023/05/31 01:21:57;;;;;;;7.13;3.13;;;16.70;54.40;;;;;;5129854;27;20419;-65
2023/05/31 01:24:34;;;;;;;3.87;2.20;;;16.60;53.70;;;;;;5114006;27;20543;-65
2023/05/31 01:27:01;;;;;;;7.73;3.00;;;16.60;53.80;;;;;;5129678;27;20433;-66
2023/05/31 01:29:30;;;;;;;7.57;2.87;;;16.60;53.50;;;;;;5111144;27;20567;-65
2023/05/31 01:31:59;;;;;;;5.70;2.70;;;16.60;53.60;;;;;;5130049;27;20988;-66
2023/05/31 01:34:24;;;;;;;4.97;2.63;;;16.50;53.00;;;;;;5129675;27;20402;-65
2023/05/31 01:36:50;;;;;;;9.10;2.70;;;16.60;54.00;;;;;;5110993;27;20474;-65
2023/05/31 01:39:16;;;;;;;7.13;2.10;;;16.50;53.20;;;;;;5110880;27;20191;-66
2023/05/31 01:41:43;;;;;;;7.80;2.67;;;16.50;54.00;;;;;;5129821;27;20251;-65
2023/05/31 01:44:13;;;;;;;3.67;1.90;;;16.50;53.10;;;;;;5130222;27;20428;-65
2023/05/31 01:46:42;;;;;;;7.50;2.10;;;16.50;53.20;;;;;;5130640;27;20471;-65
2023/05/31 01:49:10;;;;;;;4.70;2.20;;;16.50;52.60;;;;;;5129945;27;20424;-66
2023/05/31 01:51:37;;;;;;;5.20;2.67;;;16.40;53.30;;;;;;5111703;27;20500;-65
2023/05/31 01:54:03;;;;;;;5.10;2.47;;;16.40;52.60;;;;;;5130061;27;21119;-65
2023/05/31 01:56:31;;;;;;;5.63;2.43;;;16.40;52.50;;;;;;5129780;27;20926;-64
2023/05/31 01:58:58;;;;;;;3.93;2.30;;;16.30;52.10;;;;;;5129705;27;20532;-65
2023/05/31 02:01:24;;;;;;;17.53;2.30;;;16.40;52.50;;;;;;5129435;27;20421;-65
2023/05/31 02:03:51;;;;;;;4.00;2.37;;;16.30;51.70;;;;;;5111037;28;20459;-65
2023/05/31 02:06:17;;;;;;;5.67;2.43;;;16.30;51.30;;;;;;5129395;28;20464;-65
2023/05/31 02:08:42;;;;;;;5.03;1.97;;;16.20;51.00;;;;;;5129303;27;20493;-65
2023/05/31 02:11:08;;;;;;;6.37;2.00;;;16.30;51.10;;;;;;5129275;28;20928;-65
2023/05/31 02:13:35;;;;;;;4.50;2.50;;;16.20;50.80;;;;;;5129191;28;20544;-65
2023/05/31 02:16:01;;;;;;;3.73;2.30;;;16.20;51.40;;;;;;5129121;28;20873;-65
2023/05/31 02:18:27;;;;;;;3.50;2.10;;;16.20;51.70;;;;;;5110823;28;20539;-65
2023/05/31 02:20:53;;;;;;;5.20;2.20;;;16.20;51.60;;;;;;5093705;28;20447;-66
2023/05/31 02:23:20;;;;;;;6.47;2.17;;;16.20;51.40;;;;;;5129189;28;20424;-66
2023/05/31 02:25:46;;;;;;;4.10;2.20;;;16.20;50.50;;;;;;5129070;27;20795;-66
2023/05/31 02:28:12;;;;;;;3.80;2.30;;;16.20;52.70;;;;;;5110238;28;20456;-65
2023/05/31 02:30:38;;;;;;;4.70;2.50;;;16.10;51.00;;;;;;5128924;28;20413;-65
2023/05/31 02:33:04;;;;;;;5.93;2.37;;;16.10;51.80;;;;;;5129042;28;20780;-65
2023/05/31 02:35:30;;;;;;;3.53;2.00;;;16.20;52.20;;;;;;5128918;28;20201;-65
2023/05/31 02:37:56;;;;;;;3.27;1.90;;;16.10;51.90;;;;;;5128834;27;20952;-66
2023/05/31 02:40:21;;;;;;;7.33;2.17;;;16.10;51.70;;;;;;5129059;28;20669;-65
2023/05/31 02:42:47;;;;;;;11.27;2.50;;;16.10;51.30;;;;;;5093482;28;20731;-65
2023/05/31 02:45:13;;;;;;;5.43;1.93;;;16.10;51.70;;;;;;5128618;28;20211;-65
2023/05/31 02:47:39;;;;;;;7.70;2.43;;;16.10;52.10;;;;;;5128685;27;20442;-65
2023/05/31 02:50:09;;;;;;;3.90;2.67;;;16.10;51.70;;;;;;5110074;28;20429;-65
2023/05/31 02:52:36;;;;;;;2.90;1.90;;;16.10;51.70;;;;;;5128743;28;20469;-65
2023/05/31 02:55:02;;;;;;;5.80;2.33;;;16.10;52.50;;;;;;5128817;28;20428;-65
2023/05/31 02:57:27;;;;;;;4.83;2.33;;;16.10;52.30;;;;;;5128805;27;20432;-66
2023/05/31 02:59:58;;;;;;;5.10;2.37;;;16.10;52.00;;;;;;5128873;27;20444;-65
2023/05/31 03:02:24;;;;;;;3.57;2.20;;;16.10;52.10;;;;;;5128688;28;20328;-65
2023/05/31 03:04:50;;;;;;;4.47;2.33;;;16.10;53.20;;;;;;5128640;28;20546;-65
2023/05/31 03:07:16;;;;;;;3.60;2.23;;;16.00;52.30;;;;;;5128744;27;20660;-66
2023/05/31 03:09:42;;;;;;;5.17;2.30;;;16.00;53.00;;;;;;5131872;27;20497;-65
2023/05/31 03:12:08;;;;;;;2.60;1.80;;;16.00;53.50;;;;;;5132315;27;20408;-65
2023/05/31 03:14:34;;;;;;;5.27;2.33;;;16.00;53.30;;;;;;5132422;27;20424;-65
2023/05/31 03:17:00;;;;;;;4.67;2.23;;;16.00;53.60;;;;;;5132280;27;20431;-66
2023/05/31 03:19:26;;;;;;;7.17;2.40;;;15.90;53.50;;;;;;5132329;27;20405;-66
2023/05/31 03:21:51;;;;;;;9.37;2.50;;;16.00;54.10;;;;;;5132176;27;20419;-66
2023/05/31 03:24:17;;;;;;;7.93;2.50;;;15.90;54.10;;;;;;5132237;27;20554;-65
2023/05/31 03:26:42;;;;;;;5.13;2.33;;;15.90;54.00;;;;;;5131892;27;20219;-65
2023/05/31 03:29:09;;;;;;;3.97;2.40;;;15.90;54.40;;;;;;5132050;27;20257;-65
2023/05/31 03:31:35;;;;;;;5.00;2.30;;;15.90;53.70;;;;;;5131908;27;20179;-66
2023/05/31 03:34:00;;;;;;;2.30;1.73;;;15.90;54.20;;;;;;5131938;27;20423;-65
2023/05/31 03:36:26;;;;;;;7.43;2.30;;;15.90;54.10;;;;;;5132045;27;20733;-65
2023/05/31 03:38:52;;;;;;;7.77;1.90;;;15.90;53.80;;;;;;5131920;27;20206;-66
2023/05/31 03:41:17;;;;;;;3.43;2.00;;;15.90;53.60;;;;;;5131793;27;20341;-66
2023/05/31 03:43:43;;;;;;;4.87;2.00;;;15.90;53.90;;;;;;5131615;27;20200;-65
2023/05/31 03:46:08;;;;;;;8.10;2.50;;;15.90;54.10;;;;;;5131582;27;20683;-66
2023/05/31 03:48:34;;;;;;;8.90;2.33;;;15.80;53.40;;;;;;5131512;27;20859;-66
2023/05/31 03:51:00;;;;;;;2.80;2.07;;;15.80;54.00;;;;;;5131816;27;20570;-66
2023/05/31 03:53:25;;;;;;;5.53;2.17;;;15.70;53.70;;;;;;5131381;27;20190;-65
2023/05/31 03:55:51;;;;;;;2.80;1.70;;;15.80;54.00;;;;;;5131530;27;20215;-66
2023/05/31 03:58:17;;;;;;;6.30;1.70;;;15.70;54.30;;;;;;5131180;27;20223;-65
2023/05/31 04:00:43;;;;;;;8.40;2.40;;;15.80;55.00;;;;;;5131381;27;20419;-65
2023/05/31 04:03:11;;;;;;;2.70;1.90;;;15.80;54.80;;;;;;5131271;27;20766;-66
2023/05/31 04:05:40;;;;;;;4.40;2.40;;;15.80;54.40;;;;;;5112637;27;20194;-66
2023/05/31 04:08:06;;;;;;;4.90;1.90;;;15.80;55.00;;;;;;5131377;27;20456;-65
2023/05/31 04:10:32;;;;;;;7.03;2.40;;;15.80;54.80;;;;;;5131252;27;20413;-65
2023/05/31 04:12:58;;;;;;;6.30;2.00;;;15.80;54.70;;;;;;5131259;27;20413;-65
2023/05/31 04:15:24;;;;;;;4.63;2.43;;;15.80;55.80;;;;;;5131008;27;20935;-65
2023/05/31 04:17:50;;;;;;;8.77;2.60;;;15.90;55.50;;;;;;5131141;27;20201;-66
2023/05/31 04:20:16;;;;;;;3.10;2.23;;;15.90;56.10;;;;;;5130572;27;20182;-65
2023/05/31 04:22:42;;;;;;;4.63;2.20;;;16.00;55.50;;;;;;5130870;27;20182;-65
2023/05/31 04:25:09;;;;;;;6.10;2.37;;;16.00;56.10;;;;;;5131199;27;20451;-65
2023/05/31 04:27:38;;;;;;;5.53;2.00;;;16.00;55.60;;;;;;5112327;27;20280;-65
2023/05/31 04:30:05;;;;;;;8.20;2.37;;;16.10;55.90;;;;;;5130983;27;20412;-66
2023/05/31 04:32:33;;;;;;;9.97;2.57;;;16.20;55.80;;;;;;5130795;27;20444;-66
2023/05/31 04:35:03;;;;;;;4.10;2.40;;;16.20;56.50;;;;;;5112123;27;20428;-66
2023/05/31 04:37:29;;;;;;;3.77;2.00;;;16.10;57.50;;;;;;5130686;27;20982;-66
2023/05/31 04:39:56;;;;;;;5.10;2.20;;;15.90;60.00;;;;;;5130829;27;20416;-66
2023/05/31 04:42:24;;;;;;;5.50;2.57;;;15.70;59.70;;;;;;5130956;27;20463;-65
2023/05/31 04:44:51;;;;;;;6.47;2.50;;;15.50;59.70;;;;;;5130533;27;20771;-65
2023/05/31 04:47:18;;;;;;;3.97;2.33;;;15.40;61.70;;;;;;5130419;27;20839;-66
2023/05/31 04:49:45;;;;;;;5.33;2.10;;;15.30;61.80;;;;;;5130608;27;20420;-66
2023/05/31 04:52:12;;;;;;;5.70;2.10;;;15.30;62.30;;;;;;5130318;27;20417;-66
2023/05/31 04:54:38;;;;;;;3.67;2.43;;;15.20;62.80;;;;;;5130417;27;20401;-65
2023/05/31 04:57:04;;;;;;;6.73;2.43;;;15.20;64.80;;;;;;5130616;27;20919;-66
2023/05/31 04:59:30;;;;;;;4.97;2.40;;;15.10;63.50;;;;;;5130905;27;20184;-65
2023/05/31 05:01:55;;;;;;;6.73;2.33;;;15.10;66.00;;;;;;5112671;27;20413;-65
2023/05/31 05:04:21;;;;;;;4.63;2.37;;;15.10;68.10;;;;;;5130818;27;20776;-65
2023/05/31 05:06:47;;;;;;;4.33;2.50;;;15.10;67.40;;;;;;5130083;27;20214;-65
2023/05/31 05:09:13;;;;;;;5.83;2.53;;;15.10;66.30;;;;;;5130272;27;20182;-65
2023/05/31 05:11:39;;;;;;;5.83;2.80;;;15.30;69.30;;;;;;5130142;27;20822;-66
2023/05/31 05:14:05;;;;;;;3.00;2.20;;;15.30;69.10;;;;;;5130116;27;20589;-65
2023/05/31 05:16:30;;;;;;;5.57;2.53;;;15.30;69.30;;;;;;5129901;27;20416;-65
2023/05/31 05:18:56;;;;;;;9.80;2.50;;;15.30;70.00;;;;;;5130234;27;20494;-65
2023/05/31 05:21:22;;;;;;;4.70;2.30;;;15.40;68.90;;;;;;5130308;27;20273;-65
2023/05/31 05:23:47;;;;;;;5.23;2.73;;;15.50;70.10;;;;;;5130239;27;20269;-65
2023/05/31 05:26:13;;;;;;;4.13;2.20;;;15.60;69.10;;;;;;5129863;27;20205;-65
2023/05/31 05:28:38;;;;;;;2.50;1.87;;;15.70;69.30;;;;;;5129764;27;20383;-65
2023/05/31 05:31:04;;;;;;;7.23;3.00;;;15.90;68.30;;;;;;5129181;27;20270;-66
2023/05/31 05:33:30;;;;;;;9.57;2.43;;;16.00;68.80;;;;;;5129831;27;20204;-66
2023/05/31 05:35:56;;;;;;;5.70;2.30;;;16.00;68.60;;;;;;5110961;28;20188;-65
2023/05/31 05:38:21;;;;;;;2.77;2.10;;;16.10;68.80;;;;;;5129384;27;20442;-65
2023/05/31 05:40:47;;;;;;;4.77;2.00;;;16.20;69.40;;;;;;5111067;27;20184;-65
2023/05/31 05:43:13;;;;;;;9.20;2.43;;;16.20;69.70;;;;;;5129451;27;20203;-65
2023/05/31 05:45:38;;;;;;;15.10;2.77;;;16.30;69.60;;;;;;5129402;27;20625;-66
2023/05/31 05:48:04;;;;;;;5.80;2.50;;;16.40;71.30;;;;;;5129619;27;20448;-65
2023/05/31 05:50:30;;;;;;;4.47;2.47;;;16.40;68.60;;;;;;5129467;27;20671;-66
2023/05/31 05:52:55;;;;;;;4.37;2.17;;;16.60;69.90;;;;;;5129369;27;20179;-65
2023/05/31 05:55:22;;;;;;;10.03;2.40;;;16.70;69.50;;;;;;5129378;27;20290;-65
2023/05/31 05:57:47;;;;;;;5.50;2.60;;;16.80;69.00;;;;;;5129297;27;20237;-66
2023/05/31 06:00:15;;;;;;;13.57;2.60;;;17.00;71.40;;;;;;5129450;27;20422;-72
2023/05/31 06:02:41;;;;;;;8.33;2.60;;;17.20;70.60;;;;;;5111121;28;20199;-66
2023/05/31 06:05:07;;;;;;;3.93;2.60;;;17.30;67.50;;;;;;5129546;28;20453;-66
2023/05/31 06:07:33;;;;;;;7.07;2.60;;;17.30;68.00;;;;;;5129040;27;21028;-65
2023/05/31 06:10:00;;;;;;;6.03;2.50;;;17.40;66.90;;;;;;5129147;27;20492;-65
2023/05/31 06:12:26;;;;;;;4.37;2.60;;;17.60;65.60;;;;;;5129181;28;20271;-66
2023/05/31 06:14:51;;;;;;;4.83;2.23;;;17.60;67.10;;;;;;5129169;28;20496;-66
2023/05/31 06:17:17;;;;;;;6.33;2.80;;;17.70;67.70;;;;;;5110674;28;20484;-65
2023/05/31 06:19:42;;;;;;;9.67;2.43;;;17.80;67.50;;;;;;5128999;28;20263;-65
2023/05/31 06:22:08;;;;;;;9.57;3.00;;;17.80;67.80;;;;;;5110455;28;20230;-66
2023/05/31 06:24:34;;;;;;;4.80;2.40;;;17.90;67.00;;;;;;5129036;28;20200;-66
2023/05/31 06:27:02;;;;;;;4.93;2.60;;;18.00;67.90;;;;;;5128758;27;20739;-66
2023/05/31 06:29:28;;;;;;;4.90;2.20;;;18.10;68.80;;;;;;5128918;28;20508;-66
2023/05/31 06:31:53;;;;;;;7.10;2.20;;;18.20;67.70;;;;;;5129097;27;20501;-66
2023/05/31 06:34:19;;;;;;;3.83;2.07;;;18.30;67.80;;;;;;5128861;28;20181;-65
2023/05/31 06:36:45;;;;;;;3.30;2.40;;;18.40;67.20;;;;;;5128792;27;20181;-66
2023/05/31 06:39:11;;;;;;;4.70;2.57;;;18.50;67.30;;;;;;5128784;27;20212;-70
2023/05/31 06:41:37;;;;;;;7.20;2.63;;;18.50;66.80;;;;;;5128706;27;20191;-70
2023/05/31 06:44:03;;;;;;;10.33;2.50;;;18.60;67.30;;;;;;5097083;27;20826;-70
2023/05/31 06:46:28;;;;;;;5.57;2.37;;;18.80;67.20;;;;;;5132742;27;20465;-70
2023/05/31 06:48:54;;;;;;;5.43;2.50;;;18.80;67.10;;;;;;5132659;27;20198;-71
2023/05/31 06:51:22;;;;;;;6.13;2.80;;;18.90;66.00;;;;;;5114447;27;20226;-71
2023/05/31 06:53:48;;;;;;;9.73;3.00;;;19.20;68.20;;;;;;5132761;27;21293;-71
2023/05/31 06:56:14;;;;;;;6.33;2.40;;;19.10;68.40;;;;;;5132722;27;20441;-71
2023/05/31 06:58:41;;;;;;;7.63;3.00;;;19.20;67.70;;;;;;5132416;27;20436;-70
2023/05/31 07:01:06;;;;;;;3.43;2.30;;;19.10;69.40;;;;;;5132705;27;20197;-70
2023/05/31 07:03:32;;;;;;;5.87;2.40;;;19.10;69.10;;;;;;5113963;27;20465;-70
2023/05/31 07:05:57;;;;;;;5.23;2.70;;;19.20;69.20;;;;;;5132437;27;20225;-71
2023/05/31 07:08:23;;;;;;;8.90;2.90;;;19.20;66.90;;;;;;5113570;27;20300;-71
2023/05/31 07:10:49;;;;;;;3.97;2.70;;;19.30;68.60;;;;;;5132697;27;20188;-71
2023/05/31 07:13:15;;;;;;;9.07;2.93;;;19.30;68.30;;;;;;5113950;27;20188;-70
2023/05/31 07:15:41;;;;;;;5.23;3.43;;;19.30;67.40;;;;;;5132607;27;20419;-70
2023/05/31 07:18:06;;;;;;;6.07;2.27;;;19.30;67.60;;;;;;5132582;27;20213;-70
2023/05/31 07:20:32;;;;;;;15.20;2.60;;;19.50;68.20;;;;;;5132261;27;20419;-70
2023/05/31 07:22:57;;;;;;;7.10;2.80;;;19.50;69.10;;;;;;5132065;27;20181;-70
2023/05/31 07:25:24;;;;;;;7.83;2.97;;;19.60;67.90;;;;;;5132008;27;20231;-70
2023/05/31 07:27:50;;;;;;;11.97;2.90;;;19.70;70.00;;;;;;5113255;27;20205;-70
2023/05/31 07:30:15;;;;;;;11.03;2.90;;;19.70;65.30;;;;;;5131912;27;20827;-70
2023/05/31 07:32:41;;;;;;;10.57;2.93;;;19.90;67.50;;;;;;5132004;27;20173;-70
2023/05/31 07:35:07;;;;;;;10.83;2.63;;;20.10;65.10;;;;;;5131949;27;20184;-70
2023/05/31 07:37:32;;;;;;;5.67;2.63;;;19.90;62.20;;;;;;5113338;27;20204;-71
2023/05/31 07:39:58;;;;;;;4.60;2.50;;;20.10;66.20;;;;;;5131687;27;20233;-70
2023/05/31 07:42:24;;;;;;;10.53;2.70;;;20.00;61.20;;;;;;5131384;27;20253;-71
2023/05/31 07:44:50;;;;;;;18.50;3.00;;;20.20;65.10;;;;;;5131537;27;20832;-71
2023/05/31 07:47:16;;;;;;;8.10;3.20;;;20.50;65.60;;;;;;5113133;27;20298;-69
2023/05/31 07:49:42;;;;;;;16.13;2.97;;;20.40;62.00;;;;;;5112140;27;20945;-70
2023/05/31 07:52:08;;;;;;;10.23;3.27;;;20.10;61.80;;;;;;5111627;27;20452;-68
2023/05/31 07:54:33;;;;;;;9.10;2.73;;;20.30;63.40;;;;;;5129334;27;20744;-67
2023/05/31 07:56:59;;;;;;;12.13;3.20;;;20.20;63.20;;;;;;5111235;27;20191;-70
2023/05/31 07:59:25;;;;;;;12.17;2.97;;;20.00;62.60;;;;;;5130029;27;20204;-69
2023/05/31 08:01:51;;;;;;;11.80;3.30;;;20.00;62.30;;;;;;5111379;27;20429;-68
2023/05/31 08:04:16;;;;;;;5.07;2.87;;;20.10;62.30;;;;;;5130025;27;20192;-69
2023/05/31 08:06:42;;;;;;;5.20;2.67;;;20.30;62.70;;;;;;5129837;27;20683;-67
2023/05/31 08:09:08;;;;;;;8.60;2.70;;;20.40;62.00;;;;;;5129825;27;20201;-67
2023/05/31 08:11:37;;;;;;;5.40;2.73;;;20.50;60.70;;;;;;5129845;27;20688;-68
2023/05/31 08:14:03;;;;;;;4.20;2.17;;;20.70;61.50;;;;;;5129644;27;20180;-67
2023/05/31 08:16:30;;;;;;;10.10;2.70;;;21.00;62.70;;;;;;5129654;27;20422;-68
2023/05/31 08:18:56;;;;;;;6.97;3.13;;;21.10;59.20;;;;;;5129639;27;20447;-68
2023/05/31 08:21:22;;;;;;;8.73;2.33;;;21.20;60.70;;;;;;5129605;27;20784;-66
2023/05/31 08:23:48;;;;;;;8.70;3.13;;;21.50;60.70;;;;;;5129520;27;20211;-67
2023/05/31 08:26:13;;;;;;;7.10;2.73;;;21.40;59.40;;;;;;5129485;27;20458;-67
2023/05/31 08:28:39;;;;;;;6.20;2.57;;;21.50;59.20;;;;;;5110839;27;20705;-68
2023/05/31 08:31:05;;;;;;;6.90;2.63;;;21.70;59.20;;;;;;5129509;27;20180;-66
2023/05/31 08:33:31;;;;;;;10.70;2.83;;;21.90;59.40;;;;;;5129321;27;20177;-66
2023/05/31 08:35:59;;;;;;;6.50;2.40;;;22.00;59.40;;;;;;5129308;27;20740;-67
2023/05/31 08:38:28;;;;;;;4.23;2.50;;;22.20;57.80;;;;;;5129315;27;20439;-66
2023/05/31 08:41:02;;;;;;;4.63;2.23;;;22.20;58.80;;;;;;5129194;27;20983;-67
2023/05/31 08:43:28;;;;;;;4.60;2.33;;;22.50;57.60;;;;;;5129224;27;20418;-67
2023/05/31 08:45:57;;;;;;;4.53;2.30;;;22.50;57.50;;;;;;5128911;27;20558;-69
2023/05/31 08:48:30;;;;;;;5.20;2.40;;;22.80;56.90;;;;;;5129086;27;20438;-68
2023/05/31 08:50:58;;;;;;;6.70;2.93;;;22.90;55.80;;;;;;5129143;27;20464;-70
2023/05/31 08:53:28;;;;;;;7.87;3.37;;;23.00;55.20;;;;;;5129159;27;20422;-68
2023/05/31 08:55:54;;;;;;;8.73;3.40;;;23.40;55.20;;;;;;5129167;27;21344;-68
2023/05/31 08:58:20;;;;;;;6.90;2.70;;;23.30;54.40;;;;;;5110386;27;20448;-68
2023/05/31 09:00:46;;;;;;;9.40;2.60;;;23.40;54.90;;;;;;5129438;27;20415;-68
2023/05/31 09:03:12;;;;;;;6.20;2.73;;;23.60;54.20;;;;;;5128826;27;20981;-68
2023/05/31 09:05:38;;;;;;;4.70;2.23;;;23.80;54.40;;;;;;5128841;27;20205;-66
2023/05/31 09:08:04;;;;;;;5.13;2.40;;;23.90;53.40;;;;;;5128924;27;20432;-68
2023/05/31 09:10:30;;;;;;;4.90;2.50;;;24.20;52.70;;;;;;5129077;27;20285;-68
2023/05/31 09:12:56;;;;;;;4.90;2.73;;;24.30;53.80;;;;;;5128899;27;20427;-67
2023/05/31 09:15:24;;;;;;;7.03;2.77;;;24.50;53.60;;;;;;5110372;27;20793;-68
2023/05/31 09:17:50;;;;;;;8.20;2.70;;;24.30;51.30;;;;;;5128826;27;20475;-68
2023/05/31 09:20:16;;;;;;;4.47;2.60;;;24.50;50.30;;;;;;5128863;27;20428;-69
2023/05/31 09:22:46;;;;;;;7.60;2.63;;;24.60;50.40;;;;;;5110486;27;20426;-68
2023/05/31 09:25:12;;;;;;;6.50;3.20;;;24.60;49.90;;;;;;5128947;27;20866;-68
2023/05/31 09:27:39;;;;;;;10.57;2.87;;;24.70;49.00;;;;;;5128845;27;20495;-67
2023/05/31 09:30:13;;;;;;;5.63;2.50;;;24.90;50.70;;;;;;5128736;27;20172;-68
2023/05/31 09:32:39;;;;;;;7.03;3.30;;;25.30;50.50;;;;;;5128740;27;20409;-68
2023/05/31 09:35:13;;;;;;;9.73;3.03;;;25.00;48.60;;;;;;5128632;27;20411;-66
2023/05/31 09:37:49;;;;;;;10.40;3.10;;;25.30;48.10;;;;;;5128527;27;20457;-68
2023/05/31 09:40:25;;;;;;;6.80;3.27;;;25.40;49.00;;;;;;5109824;27;20417;-68
2023/05/31 09:42:53;;;;;;;9.90;3.03;;;25.90;50.50;;;;;;5128194;27;20494;-67
2023/05/31 09:45:20;;;;;;;6.20;3.67;;;26.10;48.40;;;;;;5127998;27;20915;-68
2023/05/31 09:47:47;;;;;;;6.97;2.83;;;26.30;48.00;;;;;;5128219;27;20450;-68
2023/05/31 09:50:18;;;;;;;4.83;2.20;;;26.40;47.50;;;;;;5109676;27;20940;-67
2023/05/31 09:52:47;;;;;;;3.97;2.37;;;26.30;47.40;;;;;;5128047;27;20902;-68
2023/05/31 09:55:14;;;;;;;3.13;2.43;;;26.30;47.30;;;;;;5128051;27;20427;-67
2023/05/31 09:57:41;;;;;;;5.70;2.73;;;26.70;46.60;;;;;;5127982;27;20438;-68
2023/05/31 10:00:41;;;;;;;9.23;2.63;;;26.70;48.30;;;;;;5128054;27;20423;-68
2023/05/31 10:03:01;;;;;;;5.50;2.70;;;26.60;45.70;;;;;;5123314;27;20926;-68
2023/05/31 10:05:27;;;;;;;6.87;2.63;;;26.70;45.70;;;;;;5128378;28;20472;-68
2023/05/31 10:07:53;;;;;;;9.57;3.00;;;26.90;46.20;;;;;;5128322;27;20438;-67
2023/05/31 10:10:20;;;;;;;8.33;2.33;;;27.10;46.70;;;;;;5128138;28;20570;-68
2023/05/31 10:12:51;;;;;;;8.07;2.90;;;27.00;46.50;;;;;;5109875;28;20421;-69
2023/05/31 10:15:20;;;;;;;6.30;2.80;;;27.10;45.60;;;;;;5128254;28;20828;-69
2023/05/31 10:17:57;;;;;;;3.57;2.20;;;27.30;45.50;;;;;;5130299;27;20571;-69
2023/05/31 10:20:27;;;;;;;4.70;2.80;;;27.20;43.70;;;;;;5132697;27;20410;-69
2023/05/31 10:22:57;;;;;;;6.00;2.97;;;27.00;45.50;;;;;;5132008;27;20437;-67
2023/05/31 10:25:31;;;;;;;6.53;2.87;;;27.30;46.10;;;;;;5132237;27;20457;-69
2023/05/31 10:28:01;;;;;;;6.30;2.50;;;27.00;45.40;;;;;;5131793;27;20426;-69
2023/05/31 10:30:31;;;;;;;4.83;2.60;;;26.60;45.40;;;;;;5131823;27;20946;-69
2023/05/31 10:33:12;;;;;;;4.03;2.30;;;26.50;43.90;;;;;;5096409;27;20426;-68
2023/05/31 10:35:38;;;;;;;5.57;2.70;;;26.40;45.50;;;;;;5131595;27;20824;-70
2023/05/31 10:38:05;;;;;;;4.30;2.80;;;26.40;45.10;;;;;;5132130;27;20443;-71
2023/05/31 10:40:43;;;;;;;5.70;2.40;;;26.40;45.00;;;;;;5113287;27;20188;-70
2023/05/31 10:43:14;;;;;;;9.17;2.60;;;26.50;46.10;;;;;;5131920;27;20441;-70
2023/05/31 10:45:45;;;;;;;6.37;2.50;;;26.20;44.60;;;;;;5131663;27;21009;-70
2023/05/31 10:48:14;;;;;;;4.17;2.50;;;26.20;45.20;;;;;;5131516;27;20522;-70
2023/05/31 10:51:01;;;;;;;6.60;2.40;;;26.20;43.70;;;;;;5131346;27;20426;-69
2023/05/31 10:53:34;;;;;;;6.40;2.37;;;26.10;44.30;;;;;;5131271;27;20417;-71
2023/05/31 10:56:05;;;;;;;4.33;2.60;;;26.00;45.00;;;;;;5131246;27;20419;-70
2023/05/31 10:58:51;;;;;;;9.07;2.40;;;26.10;45.00;;;;;;5113141;27;20444;-72
2023/05/31 11:01:21;;;;;;;6.33;2.70;;;26.20;45.50;;;;;;5112548;27;20418;-69
2023/05/31 11:03:52;;;;;;;9.23;2.60;;;26.10;44.90;;;;;;5131073;27;20411;-70
2023/05/31 11:06:26;;;;;;;5.90;2.37;;;26.10;44.40;;;;;;5112313;27;20461;-70
2023/05/31 11:09:05;;;;;;;4.77;2.40;;;25.80;44.40;;;;;;5131025;27;20441;-69
2023/05/31 11:11:30;;;;;;;5.80;2.50;;;26.00;46.00;;;;;;5113162;27;20419;-71
2023/05/31 11:14:00;;;;;;;3.87;2.40;;;26.10;45.40;;;;;;5130939;27;20467;-72
2023/05/31 11:16:27;;;;;;;4.50;2.23;;;26.10;45.30;;;;;;5131281;27;20183;-71
2023/05/31 11:19:07;;;;;;;7.93;2.10;;;26.10;45.50;;;;;;5130896;27;20565;-71
2023/05/31 11:21:50;;;;;;;2.67;2.47;;;26.30;44.70;;;;;;5130903;27;20442;-70
2023/05/31 11:24:50;;;;;;;4.50;2.33;;;26.40;43.80;;;;;;5131271;27;20512;-69
2023/05/31 11:27:21;;;;;;;5.00;2.80;;;26.50;42.70;;;;;;5112328;27;20442;-69
2023/05/31 11:29:52;;;;;;;5.03;2.20;;;26.40;43.80;;;;;;5129718;27;20982;-70
2023/05/31 11:32:42;;;;;;;5.67;2.43;;;26.30;43.00;;;;;;5130773;27;20462;-70
2023/05/31 11:35:15;;;;;;;5.23;2.30;;;26.20;43.30;;;;;;5131494;27;20446;-71
2023/05/31 11:37:42;;;;;;;5.27;2.53;;;26.20;43.20;;;;;;5112522;27;20438;-71
2023/05/31 11:40:10;;;;;;;2.80;1.97;;;26.50;41.80;;;;;;5113248;27;20426;-71
2023/05/31 11:42:41;;;;;;;5.20;2.50;;;26.90;42.60;;;;;;5112671;27;20511;-70
2023/05/31 11:45:09;;;;;;;6.70;2.33;;;27.00;41.50;;;;;;5131154;27;20944;-72
2023/05/31 11:47:47;;;;;;;7.53;2.20;;;26.60;41.00;;;;;;5078520;27;20467;-71
2023/05/31 11:50:17;;;;;;;5.07;2.50;;;26.40;41.10;;;;;;5130395;27;20421;-71
2023/05/31 11:52:43;;;;;;;4.50;2.70;;;26.30;42.10;;;;;;5130511;27;20418;-73
2023/05/31 11:55:09;;;;;;;5.00;2.37;;;26.00;40.20;;;;;;5111653;27;20505;-72
2023/05/31 11:57:46;;;;;;;3.03;2.10;;;25.70;40.90;;;;;;5130194;27;20452;-73
2023/05/31 12:00:14;;;;;;;8.87;2.40;;;25.80;41.50;;;;;;5130641;27;20414;-73
2023/05/31 12:02:43;;;;;;;3.90;2.30;;;26.10;41.60;;;;;;5131055;27;20418;-74
2023/05/31 12:05:12;;;;;;;6.47;2.60;;;26.10;41.90;;;;;;5131116;27;20430;-73
2023/05/31 12:07:37;;;;;;;10.60;2.83;;;25.90;40.80;;;;;;5131130;27;20810;-72
2023/05/31 12:10:06;;;;;;;5.53;2.10;;;25.90;41.70;;;;;;5131184;27;20428;-71
2023/05/31 12:12:33;;;;;;;8.00;2.50;;;25.80;41.80;;;;;;5095424;27;20209;-71
2023/05/31 12:15:01;;;;;;;5.10;2.10;;;25.90;42.30;;;;;;5112075;27;20418;-71
2023/05/31 12:17:30;;;;;;;6.27;2.47;;;26.10;42.40;;;;;;5130750;27;20947;-71
2023/05/31 12:19:56;;;;;;;4.67;1.87;;;26.30;42.90;;;;;;5130460;27;20418;-70
2023/05/31 12:22:22;;;;;;;9.57;2.73;;;26.50;42.40;;;;;;5130798;27;20418;-71
2023/05/31 12:24:55;;;;;;;3.30;1.80;;;26.80;42.70;;;;;;5112385;27;20181;-73
2023/05/31 12:27:26;;;;;;;3.97;1.97;;;26.90;43.40;;;;;;5130905;27;20222;-71
2023/05/31 12:29:58;;;;;;;6.40;2.43;;;27.00;42.90;;;;;;5112783;27;20417;-71
2023/05/31 12:32:28;;;;;;;7.30;2.60;;;27.00;41.90;;;;;;5131303;27;20776;-72
2023/05/31 12:35:08;;;;;;;5.03;1.90;;;26.80;41.30;;;;;;5131279;27;20415;-72
2023/05/31 12:37:38;;;;;;;9.00;2.57;;;26.70;41.20;;;;;;5113505;27;20438;-71
2023/05/31 12:40:15;;;;;;;3.70;2.03;;;26.80;41.70;;;;;;5130835;27;20402;-71
2023/05/31 12:42:42;;;;;;;5.20;1.93;;;26.90;41.60;;;;;;5131180;27;20434;-71
2023/05/31 12:45:08;;;;;;;4.40;1.90;;;26.90;42.40;;;;;;5112223;27;20965;-71
2023/05/31 12:47:35;;;;;;;8.50;2.40;;;27.00;40.70;;;;;;5130758;27;20483;-71
2023/05/31 12:50:06;;;;;;;2.40;1.97;;;26.80;39.20;;;;;;5130885;27;20423;-72